createdAt,value
2023-02-25T00:02:39.048Z,4.03
2023-02-25T00:05:45.293Z,3.94
2023-02-25T00:08:49.330Z,3.90
2023-02-25T00:11:54.641Z,3.87
2023-02-25T00:14:59.503Z,3.89
2023-02-25T00:18:03.044Z,3.88
2023-02-25T00:21:09.497Z,3.85
2023-02-25T00:24:17.084Z,3.87
2023-02-25T00:27:20.518Z,3.87
2023-02-25T00:30:25.308Z,3.82
2023-02-25T00:33:32.148Z,3.37
2023-02-25T00:36:36.420Z,2.72
2023-02-25T00:39:44.466Z,2.54
2023-02-25T00:42:49.462Z,2.36
2023-02-25T00:45:54.414Z,2.15
2023-02-25T00:48:58.561Z,2.20
2023-02-25T00:52:01.998Z,2.22
2023-02-25T00:55:08.451Z,2.27
2023-02-25T00:58:11.859Z,2.22
2023-02-25T01:01:22.895Z,2.26
2023-02-25T01:04:26.175Z,2.32
2023-02-25T01:07:30.426Z,2.35
2023-02-25T01:10:33.600Z,2.39
2023-02-25T01:13:36.766Z,2.45
2023-02-25T01:16:41.625Z,2.50
2023-02-25T01:19:44.758Z,2.52
2023-02-25T01:22:50.237Z,2.59
2023-02-25T01:25:53.543Z,2.64
2023-02-25T01:28:58.086Z,2.67
2023-02-25T01:32:05.861Z,2.75
2023-02-25T01:35:11.078Z,2.82
2023-02-25T01:38:14.437Z,2.89
2023-02-25T01:41:18.013Z,2.93
2023-02-25T01:44:23.624Z,2.95
2023-02-25T01:47:33.590Z,3.01
2023-02-25T01:50:49.366Z,3.05
2023-02-25T01:53:53.044Z,3.08
2023-02-25T01:56:58.455Z,3.12
2023-02-25T02:00:01.579Z,3.16
2023-02-25T02:03:17.494Z,3.23
2023-02-25T02:06:24.882Z,3.25
2023-02-25T02:09:30.141Z,3.28
2023-02-25T02:12:37.100Z,3.29
2023-02-25T02:15:49.235Z,3.36
2023-02-25T02:18:58.979Z,3.35
2023-02-25T02:22:13.730Z,3.33
2023-02-25T02:26:00.724Z,3.36
2023-02-25T02:30:06.098Z,3.39
2023-02-25T02:33:19.962Z,3.41
2023-02-25T02:36:37.060Z,3.38
2023-02-25T02:39:52.410Z,3.38
2023-02-25T02:43:12.353Z,3.37
2023-02-25T02:46:22.032Z,3.38
2023-02-25T02:49:34.001Z,3.40
2023-02-25T02:52:49.789Z,3.42
2023-02-25T02:55:56.743Z,3.42
2023-02-25T02:59:05.439Z,3.43
2023-02-25T03:02:14.833Z,3.41
2023-02-25T03:05:21.398Z,3.40
2023-02-25T03:08:30.389Z,3.36
2023-02-25T03:11:34.919Z,3.31
2023-02-25T03:14:39.128Z,3.33
2023-02-25T03:17:49.872Z,3.30
2023-02-25T03:20:57.324Z,3.27
2023-02-25T03:24:03.878Z,3.23
2023-02-25T03:27:24.781Z,3.20
2023-02-25T03:30:34.699Z,3.21
2023-02-25T03:33:48.422Z,3.18
2023-02-25T03:36:58.420Z,3.15
2023-02-25T03:40:10.805Z,3.16
2023-02-25T03:43:23.879Z,3.09
2023-02-25T03:46:28.850Z,2.99
2023-02-25T03:49:38.079Z,2.94
2023-02-25T03:52:45.702Z,2.97
2023-02-25T03:56:09.761Z,3.00
2023-02-25T03:59:15.868Z,3.02
2023-02-25T04:02:20.324Z,3.01
2023-02-25T04:05:27.863Z,2.97
2023-02-25T04:08:33.216Z,2.97
2023-02-25T04:11:36.506Z,2.96
2023-02-25T04:14:42.450Z,3.01
2023-02-25T04:17:46.925Z,3.01
2023-02-25T04:20:52.531Z,2.97
2023-02-25T04:24:00.148Z,2.96
2023-02-25T04:27:03.391Z,2.93
2023-02-25T04:30:08.548Z,2.93
2023-02-25T04:33:12.779Z,2.93
2023-02-25T04:36:29.011Z,2.91
2023-02-25T04:39:33.890Z,2.90
2023-02-25T04:42:37.436Z,2.85
2023-02-25T04:45:41.100Z,2.80
2023-02-25T04:48:44.200Z,2.80
2023-02-25T04:51:47.590Z,2.78
2023-02-25T04:54:52.082Z,2.80
2023-02-25T04:57:55.553Z,2.76
2023-02-25T05:01:01.204Z,2.76
2023-02-25T05:04:04.776Z,2.74
2023-02-25T05:07:14.023Z,2.70
2023-02-25T05:10:18.641Z,2.58
2023-02-25T05:13:22.738Z,2.56
2023-02-25T05:16:27.542Z,2.58
2023-02-25T05:19:30.786Z,2.60
2023-02-25T05:22:34.184Z,2.59
2023-02-25T05:25:41.252Z,2.62
2023-02-25T05:28:44.499Z,2.62
2023-02-25T05:31:49.582Z,2.62
2023-02-25T05:34:55.162Z,2.63
2023-02-25T05:37:58.265Z,2.63
2023-02-25T05:41:02.937Z,2.63
2023-02-25T05:44:16.732Z,2.62
2023-02-25T05:47:30.124Z,2.60
2023-02-25T05:50:43.983Z,2.61
2023-02-25T05:53:53.744Z,2.58
2023-02-25T05:57:02.419Z,2.57
2023-02-25T06:00:09.765Z,2.55
2023-02-25T06:03:15.565Z,2.57
2023-02-25T06:06:23.493Z,2.59
2023-02-25T06:09:27.245Z,2.51
2023-02-25T06:12:38.081Z,2.45
2023-02-25T06:15:43.309Z,2.44
2023-02-25T06:18:47.374Z,2.43
2023-02-25T06:21:51.081Z,2.38
2023-02-25T06:24:54.341Z,2.38
2023-02-25T06:27:59.445Z,2.32
2023-02-25T06:31:02.624Z,2.31
2023-02-25T06:34:06.252Z,2.24
2023-02-25T06:37:10.137Z,2.23
2023-02-25T06:40:16.273Z,2.23
2023-02-25T06:43:20.931Z,2.22
2023-02-25T06:46:27.172Z,2.19
2023-02-25T06:49:31.332Z,2.16
2023-02-25T06:52:35.727Z,2.15
2023-02-25T06:55:42.751Z,2.12
2023-02-25T06:58:47.967Z,2.11
2023-02-25T07:01:51.461Z,2.09
2023-02-25T07:04:55.006Z,2.06
2023-02-25T07:07:58.853Z,2.00
2023-02-25T07:11:15.170Z,1.95
2023-02-25T07:14:19.970Z,1.94
2023-02-25T07:17:23.356Z,1.98
2023-02-25T07:20:26.514Z,2.00
2023-02-25T07:23:29.615Z,2.01
2023-02-25T07:26:32.951Z,2.00
2023-02-25T07:29:37.379Z,2.01
2023-02-25T07:32:40.790Z,2.07
2023-02-25T07:35:44.104Z,2.06
2023-02-25T07:38:48.588Z,2.06
2023-02-25T07:41:51.734Z,2.08
2023-02-25T07:44:58.856Z,2.11
2023-02-25T07:48:03.093Z,2.07
2023-02-25T07:51:07.186Z,2.11
2023-02-25T07:54:10.308Z,2.16
2023-02-25T07:57:13.671Z,2.15
2023-02-25T08:00:20.681Z,2.14
2023-02-25T08:03:23.948Z,2.28
2023-02-25T08:06:28.852Z,2.25
2023-02-25T08:09:31.884Z,2.24
2023-02-25T08:12:38.362Z,2.16
2023-02-25T08:15:44.048Z,2.18
2023-02-25T08:18:47.987Z,2.22
2023-02-25T08:21:51.696Z,2.21
2023-02-25T08:24:55.968Z,2.25
2023-02-25T08:27:59.211Z,2.23
2023-02-25T08:31:04.386Z,2.26
2023-02-25T08:34:07.724Z,2.18
2023-02-25T08:37:12.153Z,2.20
2023-02-25T08:40:17.293Z,2.24
2023-02-25T08:43:21.636Z,2.23
2023-02-25T08:46:29.356Z,2.17
2023-02-25T08:49:32.734Z,2.09
2023-02-25T08:52:35.804Z,2.14
2023-02-25T08:55:39.792Z,2.15
2023-02-25T08:58:43.927Z,2.20
2023-02-25T09:01:50.352Z,2.17
2023-02-25T09:04:53.902Z,2.16
2023-02-25T09:07:59.123Z,2.22
2023-02-25T09:11:10.685Z,2.26
2023-02-25T09:14:15.131Z,2.21
2023-02-25T09:17:19.622Z,2.29
2023-02-25T09:20:24.207Z,2.32
2023-02-25T09:23:27.602Z,2.23
2023-02-25T09:26:30.763Z,2.28
2023-02-25T09:29:34.524Z,2.29
2023-02-25T09:32:39.811Z,2.27
2023-02-25T09:35:43.413Z,2.23
2023-02-25T09:38:49.158Z,2.30
2023-02-25T09:41:57.264Z,2.28
2023-02-25T09:45:04.539Z,2.31
2023-02-25T09:48:18.952Z,2.34
2023-02-25T09:51:24.966Z,2.33
2023-02-25T09:54:34.366Z,2.37
2023-02-25T09:57:41.465Z,2.44
2023-02-25T10:00:50.403Z,2.44
2023-02-25T10:04:00.489Z,2.54
2023-02-25T10:07:16.365Z,2.56
2023-02-25T10:10:26.429Z,2.59
2023-02-25T10:13:43.315Z,2.60
2023-02-25T10:16:55.391Z,2.60
2023-02-25T10:20:33.592Z,2.52
2023-02-25T10:24:07.554Z,2.53
2023-02-25T10:27:22.469Z,2.56
2023-02-25T10:30:33.347Z,2.63
2023-02-25T10:33:40.358Z,2.58
2023-02-25T10:36:49.331Z,2.53
2023-02-25T10:39:58.342Z,2.55
2023-02-25T10:43:20.165Z,2.58
2023-02-25T10:46:32.339Z,2.62
2023-02-25T10:49:38.456Z,2.66
2023-02-25T10:52:57.642Z,2.66
2023-02-25T10:56:02.014Z,2.58
2023-02-25T10:59:09.968Z,2.60
2023-02-25T11:02:28.648Z,2.68
2023-02-25T11:05:37.087Z,2.82
2023-02-25T11:08:44.677Z,2.82
2023-02-25T11:11:56.484Z,2.93
2023-02-25T11:15:19.602Z,3.03
2023-02-25T11:18:30.695Z,2.96
2023-02-25T11:21:40.381Z,2.93
2023-02-25T11:24:47.113Z,3.02
2023-02-25T11:27:58.771Z,3.11
2023-02-25T11:31:17.830Z,2.99
2023-02-25T11:34:26.865Z,2.68
2023-02-25T11:37:48.083Z,2.31
2023-02-25T11:41:17.802Z,2.52
2023-02-25T11:45:05.833Z,2.74
2023-02-25T11:48:45.764Z,2.81
2023-02-25T11:52:09.658Z,2.76
2023-02-25T11:55:52.989Z,3.02
2023-02-25T11:59:17.500Z,3.10
2023-02-25T12:02:28.879Z,3.06
2023-02-25T12:05:50.393Z,3.09
2023-02-25T12:09:41.444Z,3.07
2023-02-25T12:13:13.777Z,2.88
2023-02-25T12:17:15.009Z,2.60
2023-02-25T12:20:51.202Z,2.49
2023-02-25T12:24:33.591Z,2.39
2023-02-25T12:28:14.695Z,1.91
2023-02-25T12:32:08.434Z,1.56
2023-02-25T12:35:50.718Z,1.52
2023-02-25T12:39:27.799Z,1.69
2023-02-25T12:42:53.708Z,1.81
2023-02-25T12:46:39.604Z,1.89
2023-02-25T12:50:04.987Z,2.05
2023-02-25T12:53:25.144Z,2.16
2023-02-25T12:57:04.424Z,2.21
2023-02-25T13:00:47.656Z,2.20
2023-02-25T13:04:15.455Z,2.20
2023-02-25T13:07:45.388Z,2.15
2023-02-25T13:11:00.623Z,2.01
2023-02-25T13:14:33.746Z,1.80
2023-02-25T13:17:56.739Z,1.52
2023-02-25T13:21:21.120Z,1.72
2023-02-25T13:24:45.824Z,1.63
2023-02-25T13:28:15.718Z,1.49
2023-02-25T13:31:31.348Z,1.03
2023-02-25T13:34:45.586Z,1.01
2023-02-25T13:38:02.077Z,1.13
2023-02-25T13:41:42.895Z,1.19
2023-02-25T13:45:27.805Z,1.34
2023-02-25T13:49:05.041Z,1.36
2023-02-25T13:52:22.577Z,1.37
2023-02-25T13:55:39.754Z,1.48
2023-02-25T13:59:13.236Z,1.68
2023-02-25T14:02:39.484Z,1.82
2023-02-25T14:06:01.248Z,1.87
2023-02-25T14:09:23.211Z,1.92
2023-02-25T14:12:45.143Z,1.91
2023-02-25T14:16:07.360Z,1.75
2023-02-25T14:19:30.727Z,1.50
2023-02-25T14:22:41.808Z,1.44
2023-02-25T14:26:08.146Z,1.47
2023-02-25T14:29:22.292Z,1.40
2023-02-25T14:32:51.693Z,1.46
2023-02-25T14:36:13.455Z,1.50
2023-02-25T14:39:40.198Z,1.60
2023-02-25T14:43:06.227Z,1.61
2023-02-25T14:46:23.521Z,1.64
2023-02-25T14:49:40.879Z,1.61
2023-02-25T14:53:30.767Z,1.61
2023-02-25T14:56:52.475Z,1.63
2023-02-25T15:00:16.244Z,1.71
2023-02-25T15:04:05.778Z,1.71
2023-02-25T15:07:31.527Z,1.70
2023-02-25T15:11:02.417Z,1.70
2023-02-25T15:14:41.800Z,1.75
2023-02-25T15:18:41.640Z,1.81
2023-02-25T15:21:46.779Z,1.80
2023-02-25T15:24:54.207Z,1.80
2023-02-25T15:28:00.355Z,1.84
2023-02-25T15:31:34.220Z,1.84
2023-02-25T15:34:39.406Z,1.85
2023-02-25T15:38:09.547Z,1.87
2023-02-25T15:41:42.380Z,1.88
2023-02-25T15:44:46.864Z,1.81
2023-02-25T15:47:50.606Z,1.81
2023-02-25T15:50:54.357Z,1.83
2023-02-25T15:53:58.150Z,1.79
2023-02-25T15:57:05.009Z,1.74
2023-02-25T16:00:52.224Z,1.73
2023-02-25T16:03:56.237Z,1.71
2023-02-25T16:07:00.285Z,1.72
2023-02-25T16:10:12.090Z,1.69
2023-02-25T16:13:22.960Z,1.68
2023-02-25T16:16:27.281Z,1.62
2023-02-25T16:19:36.375Z,1.60
2023-02-25T16:22:45.615Z,1.60
2023-02-25T16:26:07.082Z,1.33
2023-02-25T16:29:33.843Z,1.21
2023-02-25T16:32:49.290Z,1.16
2023-02-25T16:36:07.748Z,1.10
2023-02-25T16:39:17.007Z,1.08
2023-02-25T16:42:21.366Z,1.09
2023-02-25T16:45:30.484Z,1.05
2023-02-25T16:48:38.448Z,0.93
2023-02-25T16:51:44.748Z,0.86
2023-02-25T16:54:53.387Z,0.81
2023-02-25T16:58:06.278Z,0.82
2023-02-25T17:01:24.996Z,0.79
2023-02-25T17:04:32.862Z,0.80
2023-02-25T17:07:37.138Z,0.78
2023-02-25T17:10:46.679Z,0.77
2023-02-25T17:13:51.680Z,0.79
2023-02-25T17:16:57.722Z,0.79
2023-02-25T17:20:06.060Z,0.76
2023-02-25T17:23:13.048Z,0.79
2023-02-25T17:26:17.759Z,0.79
2023-02-25T17:29:22.113Z,0.83
2023-02-25T17:32:29.919Z,0.78
2023-02-25T17:35:34.588Z,0.75
2023-02-25T17:38:39.205Z,0.77
2023-02-25T17:41:43.916Z,0.68
2023-02-25T17:44:47.468Z,0.62
2023-02-25T17:47:51.940Z,0.63
2023-02-25T17:50:59.683Z,0.56
2023-02-25T17:54:07.707Z,0.50
2023-02-25T17:57:17.918Z,0.45
2023-02-25T18:00:25.005Z,0.39
2023-02-25T18:03:30.777Z,0.33
2023-02-25T18:06:42.897Z,0.30
2023-02-25T18:09:46.084Z,0.30
2023-02-25T18:12:49.991Z,0.28
2023-02-25T18:16:34.491Z,0.31
2023-02-25T18:19:42.901Z,0.33
2023-02-25T18:22:49.399Z,0.26
2023-02-25T18:26:15.525Z,0.28
2023-02-25T18:29:21.667Z,0.29
2023-02-25T18:32:24.851Z,0.36
2023-02-25T18:35:31.304Z,0.34
2023-02-25T18:38:37.792Z,0.38
2023-02-25T18:41:40.952Z,0.39
2023-02-25T18:44:45.623Z,0.40
2023-02-25T18:47:50.542Z,0.38
2023-02-25T18:50:56.365Z,0.36
2023-02-25T18:53:59.880Z,0.37
2023-02-25T18:57:02.914Z,0.38
2023-02-25T19:00:08.183Z,0.33
2023-02-25T19:03:17.248Z,0.32
2023-02-25T19:06:21.660Z,0.34
2023-02-25T19:09:27.548Z,0.32
2023-02-25T19:12:35.195Z,0.30
2023-02-25T19:15:38.202Z,0.31
2023-02-25T19:18:42.826Z,0.36
2023-02-25T19:21:47.833Z,0.32
2023-02-25T19:24:51.678Z,0.36
2023-02-25T19:27:56.888Z,0.37
2023-02-25T19:31:00.197Z,0.34
2023-02-25T19:34:03.357Z,0.34
2023-02-25T19:37:07.784Z,0.33
2023-02-25T19:40:14.563Z,0.36
2023-02-25T19:43:18.643Z,0.36
2023-02-25T19:46:21.844Z,0.38
2023-02-25T19:49:25.185Z,0.33
2023-02-25T19:52:30.532Z,0.34
2023-02-25T19:55:34.195Z,0.38
2023-02-25T19:58:37.317Z,0.37
2023-02-25T20:01:41.396Z,0.35
2023-02-25T20:04:44.766Z,0.35
2023-02-25T20:07:49.441Z,0.34
2023-02-25T20:10:52.620Z,0.30
2023-02-25T20:13:56.046Z,0.31
2023-02-25T20:17:00.813Z,0.28
2023-02-25T20:20:04.277Z,0.32
2023-02-25T20:23:09.918Z,0.29
2023-02-25T20:26:17.295Z,0.28
2023-02-25T20:29:21.446Z,0.28
2023-02-25T20:32:24.614Z,0.25
2023-02-25T20:35:28.782Z,0.24
2023-02-25T20:38:37.472Z,0.19
2023-02-25T20:41:42.076Z,0.03
2023-02-25T20:44:45.886Z,0.01
2023-02-25T20:47:49.366Z,0.01
2023-02-25T20:50:53.791Z,-0.06
2023-02-25T20:53:58.794Z,-0.06
2023-02-25T20:57:02.340Z,-0.08
2023-02-25T21:00:09.024Z,-0.11
2023-02-25T21:03:12.148Z,-0.06
2023-02-25T21:06:25.524Z,-0.08
2023-02-25T21:09:30.366Z,-0.03
2023-02-25T21:12:33.607Z,-0.01
2023-02-25T21:15:36.946Z,0.04
2023-02-25T21:18:41.520Z,0.07
2023-02-25T21:21:44.856Z,0.07
2023-02-25T21:24:49.165Z,0.07
2023-02-25T21:27:52.216Z,0.02
2023-02-25T21:31:02.467Z,-0.04
2023-02-25T21:34:06.635Z,-0.03
2023-02-25T21:37:09.655Z,-0.05
2023-02-25T21:40:14.431Z,-0.05
2023-02-25T21:43:17.672Z,-0.09
2023-02-25T21:46:20.875Z,-0.08
2023-02-25T21:49:25.005Z,-0.11
2023-02-25T21:52:28.112Z,-0.11
2023-02-25T21:55:32.477Z,-0.09
2023-02-25T21:58:35.473Z,-0.08
2023-02-25T22:01:41.347Z,-0.14
2023-02-25T22:04:45.226Z,-0.17
2023-02-25T22:07:48.301Z,-0.14
2023-02-25T22:10:52.681Z,-0.15
2023-02-25T22:13:56.526Z,-0.17
2023-02-25T22:17:01.830Z,-0.19
2023-02-25T22:20:06.085Z,-0.21
2023-02-25T22:23:09.154Z,-0.22
2023-02-25T22:26:17.302Z,-0.20
2023-02-25T22:29:20.447Z,-0.22
2023-02-25T22:32:23.779Z,-0.18
2023-02-25T22:35:26.987Z,-0.19
2023-02-25T22:38:31.642Z,-0.20
2023-02-25T22:41:36.328Z,-0.19
2023-02-25T22:44:39.346Z,-0.17
2023-02-25T22:47:43.188Z,-0.19
2023-02-25T22:50:50.250Z,-0.19
2023-02-25T22:53:54.409Z,-0.17
2023-02-25T22:56:58.875Z,-0.20
2023-02-25T23:00:03.490Z,-0.17
2023-02-25T23:03:07.765Z,-0.18
2023-02-25T23:06:11.930Z,-0.15
2023-02-25T23:09:15.525Z,-0.16
2023-02-25T23:12:21.325Z,-0.16
2023-02-25T23:15:24.952Z,-0.18
2023-02-25T23:18:28.667Z,-0.20
2023-02-25T23:21:32.403Z,-0.20
2023-02-25T23:24:36.144Z,-0.18
2023-02-25T23:27:40.426Z,-0.15
2023-02-25T23:30:43.628Z,-0.20
2023-02-25T23:33:47.580Z,-0.22
2023-02-25T23:36:50.635Z,-0.21
2023-02-25T23:39:53.619Z,-0.22
2023-02-25T23:42:57.983Z,-0.24
2023-02-25T23:46:04.305Z,-0.24
2023-02-25T23:49:09.651Z,-0.24
2023-02-25T23:52:12.768Z,-0.26
2023-02-25T23:55:16.110Z,-0.26
2023-02-25T23:58:20.489Z,-0.24
